Time;durP1;ratioP1;P1;durP2;ratioP2;P2;SDS_P1;SDS_P2;PMS_P1;PMS_P2;Temp;Humidity;BMP_temperature;BMP_pressure;BME280_temperature;BME280_humidity;BME280_pressure;Samples;Min_cycle;Max_cycle;Signal;HPM_P1;HPM_P2
2023/11/29 00:05:42;;;;;;;8.40;1.83;;;;;;;11.72;100.00;99070.94;31078819;28;20057;-78
2023/11/29 00:20:47;;;;;;;8.73;2.47;;;;;;;11.72;100.00;99038.31;31048636;28;20136;-78
2023/11/29 00:35:49;;;;;;;3.33;2.17;;;;;;;12.12;100.00;99051.06;31047522;28;20053;-77
2023/11/29 00:50:52;;;;;;;5.23;2.30;;;;;;;12.03;100.00;99049.13;31083328;28;20112;-76
2023/11/29 01:05:56;;;;;;;6.93;2.37;;;;;;;11.90;100.00;99030.22;31044829;28;20050;-78
2023/11/29 01:20:58;;;;;;;5.37;2.33;;;;;;;11.52;100.00;98994.50;31086354;28;20058;-77
2023/11/29 01:36:11;;;;;;;10.83;2.50;;;;;;;11.48;100.00;98962.03;31060304;28;20054;-77
2023/11/29 01:51:13;;;;;;;6.23;2.53;;;;;;;11.19;100.00;98923.66;31077077;28;20077;-78
2023/11/29 02:06:16;;;;;;;16.73;3.20;;;;;;;11.25;100.00;98890.00;31065361;28;20412;-77
2023/11/29 02:21:23;;;;;;;6.40;2.87;;;;;;;11.39;100.00;98861.47;31059633;28;20420;-78
2023/11/29 02:36:25;;;;;;;7.23;2.90;;;;;;;11.28;100.00;98796.75;31081679;28;20097;-79
2023/11/29 02:51:27;;;;;;;8.37;2.90;;;;;;;11.26;100.00;98750.25;31074268;28;20057;-77
2023/11/29 03:06:29;;;;;;;10.33;3.77;;;;;;;11.34;100.00;98715.38;31053982;28;20088;-78
2023/11/29 03:21:33;;;;;;;5.93;2.93;;;;;;;11.58;100.00;98699.16;31076779;28;20061;-76
2023/11/29 03:36:35;;;;;;;5.67;2.63;;;;;;;11.50;100.00;98697.97;31051022;28;20061;-77
2023/11/29 03:51:37;;;;;;;8.40;2.43;;;;;;;11.52;100.00;98641.22;31040153;28;20138;-75
2023/11/29 04:06:47;;;;;;;6.87;3.20;;;;;;;11.58;100.00;98609.47;31041495;28;20053;-74
2023/11/29 04:21:49;;;;;;;8.90;3.87;;;;;;;11.51;100.00;98580.69;31021842;28;20064;-76
2023/11/29 04:36:51;;;;;;;12.43;4.60;;;;;;;11.81;100.00;98576.13;31074115;28;20058;-76
2023/11/29 04:51:53;;;;;;;7.03;3.17;;;;;;;11.91;100.00;98504.16;31062199;28;20054;-76
2023/11/29 05:06:55;;;;;;;9.03;2.97;;;;;;;11.71;100.00;98463.22;31081708;28;20141;-76
2023/11/29 05:21:58;;;;;;;15.27;3.97;;;;;;;11.66;100.00;98439.41;31080875;28;20104;-76
2023/11/29 05:36:59;;;;;;;7.30;3.30;;;;;;;11.80;100.00;98408.81;31081535;28;20046;-77
2023/11/29 05:52:01;;;;;;;8.10;2.93;;;;;;;11.79;100.00;98458.97;31083493;28;20484;-77
2023/11/29 06:07:04;;;;;;;10.07;2.77;;;;;;;11.76;100.00;98366.69;31076116;28;20073;-75
2023/11/29 06:22:06;;;;;;;1.00;1.00;;;;;;;11.53;100.00;98341.09;31066831;28;20062;-74
2023/11/29 06:37:08;;;;;;;0.97;0.97;;;;;;;11.60;100.00;98313.50;31042072;28;20153;-79
2023/11/29 06:52:12;;;;;;;0.30;0.30;;;;;;;11.51;100.00;98314.38;31068082;28;20078;-79
2023/11/29 07:07:15;;;;;;;0.50;0.50;;;;;;;11.76;100.00;98285.91;31068605;28;20057;-80
2023/11/29 07:22:19;;;;;;;0.77;0.63;;;;;;;11.95;100.00;98302.78;31085161;28;20053;-82
2023/11/29 07:37:21;;;;;;;0.30;0.30;;;;;;;11.93;100.00;98243.41;31071518;28;20051;-82
2023/11/29 07:52:24;;;;;;;1.33;1.23;;;;;;;11.90;100.00;98228.03;31049007;28;20141;-83
2023/11/29 08:07:26;;;;;;;0.30;0.30;;;;;;;11.90;100.00;98181.81;31038279;28;20100;-86
2023/11/29 08:22:28;;;;;;;0.30;0.30;;;;;;;11.91;100.00;98166.25;31125144;28;20068;-82
2023/11/29 08:37:37;;;;;;;0.40;0.40;;;;;;;12.27;100.00;98116.06;31074462;28;20049;-83
2023/11/29 08:52:42;;;;;;;0.30;0.30;;;;;;;12.94;100.00;98067.72;31112400;28;20061;-83
2023/11/29 09:07:44;;;;;;;0.97;0.87;;;;;;;13.40;100.00;98048.50;31109232;28;20051;-85
2023/11/29 09:22:49;;;;;;;0.93;0.93;;;;;;;13.70;100.00;98080.91;31137390;28;20061;-82
2023/11/29 09:37:52;;;;;;;1.60;1.50;;;;;;;13.79;100.00;98116.88;31096547;28;20310;-81
2023/11/29 09:52:57;;;;;;;0.40;0.40;;;;;;;13.97;100.00;98111.00;31083166;28;20056;-82
2023/11/29 10:08:00;;;;;;;0.70;0.70;;;;;;;14.17;100.00;98112.09;31080521;28;20051;-89
2023/11/29 10:23:02;;;;;;;0.23;0.23;;;;;;;14.37;100.00;98141.94;31066207;28;20062;-79
2023/11/29 10:38:12;;;;;;;0.70;0.70;;;;;;;14.64;100.00;98154.94;31076794;28;20064;-82
2023/11/29 10:53:16;;;;;;;5.63;1.17;;;;;;;14.92;100.00;98187.06;31055726;28;20052;-79
2023/11/29 11:08:35;;;;;;;0.43;0.43;;;;;;;14.78;100.00;98218.06;31066535;28;20049;-80
2023/11/29 11:23:40;;;;;;;1.23;1.23;;;;;;;14.26;100.00;98311.09;31090357;28;20065;-81
2023/11/29 11:38:44;;;;;;;0.40;0.40;;;;;;;16.00;100.00;98365.97;31048090;28;20052;-81
2023/11/29 11:53:46;;;;;;;0.40;0.40;;;;;;;15.05;100.00;98427.81;31033323;28;20054;-80
2023/11/29 12:08:49;;;;;;;0.70;0.70;;;;;;;13.78;100.00;98442.63;31037399;28;20085;-82
2023/11/29 12:23:52;;;;;;;1.80;1.07;;;;;;;13.16;100.00;98517.44;31043338;28;20054;-80
2023/11/29 12:38:54;;;;;;;1.43;1.33;;;;;;;12.54;100.00;98561.94;31042855;28;20096;-82
2023/11/29 12:54:15;;;;;;;1.90;1.60;;;;;;;12.44;100.00;98609.53;31037771;28;20058;-86
2023/11/29 13:09:38;;;;;;;2.77;2.53;;;;;;;12.01;100.00;98659.88;31027395;28;20067;-84
2023/11/29 13:24:41;;;;;;;11.77;6.47;;;;;;;11.86;100.00;98725.03;31080501;28;20397;-83
2023/11/29 13:39:43;;;;;;;9.03;5.63;;;;;;;11.35;100.00;98756.88;31075785;28;20049;-85
2023/11/29 13:54:45;;;;;;;10.73;6.90;;;;;;;11.69;100.00;98785.66;31077890;28;20050;-82
2023/11/29 14:09:47;;;;;;;14.07;7.20;;;;;;;11.62;100.00;98846.50;31065802;28;20062;-87
2023/11/29 14:24:49;;;;;;;13.27;6.83;;;;;;;11.33;100.00;98868.00;31039589;28;20054;-80
2023/11/29 14:39:51;;;;;;;15.17;7.47;;;;;;;11.27;100.00;98914.00;31059191;28;20125;-83
2023/11/29 14:54:54;;;;;;;22.80;10.07;;;;;;;11.04;100.00;98961.50;31032554;28;20046;-88
2023/11/29 15:09:59;;;;;;;17.80;8.77;;;;;;;10.93;100.00;99026.31;31081049;28;20108;-83
2023/11/29 15:25:01;;;;;;;13.77;8.37;;;;;;;10.74;100.00;99062.72;31075467;28;20046;-83
2023/11/29 15:40:18;;;;;;;12.73;7.80;;;;;;;10.36;100.00;99142.38;31051189;28;20046;-84
2023/11/29 15:55:20;;;;;;;17.97;9.30;;;;;;;10.36;100.00;99169.50;31054336;28;20057;-87
2023/11/29 16:10:22;;;;;;;17.73;9.57;;;;;;;10.33;100.00;99192.09;31054906;28;20427;-86
2023/11/29 16:25:24;;;;;;;22.83;11.40;;;;;;;10.23;100.00;99242.75;31026279;28;20050;-92
2023/11/29 16:40:28;;;;;;;22.43;12.93;;;;;;;10.26;100.00;99262.84;31032938;28;20057;-86
2023/11/29 16:55:31;;;;;;;17.67;10.40;;;;;;;10.04;100.00;99259.25;31042869;28;20074;-88
2023/11/29 17:10:33;;;;;;;16.83;9.50;;;;;;;9.67;100.00;99304.13;31082121;28;20053;-81
2023/11/29 17:25:37;;;;;;;16.07;10.13;;;;;;;8.98;100.00;99325.31;31038075;28;20818;-82
2023/11/29 17:40:39;;;;;;;28.40;12.03;;;;;;;8.75;100.00;99347.91;31062809;28;20042;-82
2023/11/29 17:55:43;;;;;;;23.90;12.87;;;;;;;8.56;100.00;99376.56;31028322;28;20058;-81
2023/11/29 18:10:55;;;;;;;20.33;11.93;;;;;;;8.52;100.00;99405.66;31031318;28;20141;-81
2023/11/29 18:25:58;;;;;;;26.03;13.63;;;;;;;8.22;100.00;99414.78;31043084;28;20140;-84
2023/11/29 18:41:03;;;;;;;26.57;13.37;;;;;;;8.25;100.00;99449.09;31038752;28;20058;-82
2023/11/29 18:56:07;;;;;;;26.30;14.23;;;;;;;8.15;100.00;99461.66;31054958;28;20101;-82
2023/11/29 19:11:09;;;;;;;29.57;13.70;;;;;;;7.94;100.00;99482.94;31102778;28;20039;-84
2023/11/29 19:26:12;;;;;;;23.83;14.20;;;;;;;7.92;100.00;99536.63;31018067;28;20046;-87
2023/11/29 19:41:14;;;;;;;25.23;14.27;;;;;;;8.12;100.00;99564.44;31004823;28;20050;-82
2023/11/29 19:56:17;;;;;;;26.93;12.97;;;;;;;7.99;100.00;99595.97;31095593;28;20058;-82
2023/11/29 20:11:22;;;;;;;28.67;14.63;;;;;;;7.83;100.00;99608.19;31060856;28;20116;-86
2023/11/29 20:26:24;;;;;;;27.27;15.10;;;;;;;7.57;100.00;99643.34;31088796;28;20058;-84
2023/11/29 20:41:28;;;;;;;55.40;24.23;;;;;;;7.80;100.00;99652.22;31111127;28;20062;-85
2023/11/29 20:56:30;;;;;;;28.27;15.97;;;;;;;7.54;100.00;99663.84;31088234;28;20050;-86
2023/11/29 21:11:32;;;;;;;26.67;13.07;;;;;;;7.18;100.00;99699.41;31128217;28;20065;-86
2023/11/29 21:26:35;;;;;;;33.33;14.80;;;;;;;7.24;100.00;99724.03;31028289;28;20495;-83
2023/11/29 21:41:37;;;;;;;25.77;13.87;;;;;;;7.06;100.00;99708.06;31128139;28;20064;-85
2023/11/29 21:56:39;;;;;;;17.30;8.80;;;;;;;6.95;100.00;99744.41;31023200;28;20104;-84
2023/11/29 22:11:42;;;;;;;26.33;13.70;;;;;;;7.02;100.00;99760.53;31004046;28;20427;-84
2023/11/29 22:26:44;;;;;;;31.70;16.30;;;;;;;7.07;100.00;99763.56;31011944;28;20420;-86
2023/11/29 22:41:57;;;;;;;25.47;12.20;;;;;;;7.07;100.00;99770.91;31048775;28;20047;-84
2023/11/29 22:57:00;;;;;;;18.97;11.03;;;;;;;6.99;100.00;99791.03;31013154;28;20064;-85
2023/11/29 23:12:02;;;;;;;20.27;11.10;;;;;;;6.95;100.00;99820.72;31186303;28;20081;-85
2023/11/29 23:27:08;;;;;;;;;;;;;;;6.85;92.71;99816.97;31082981;28;20057;-87
2023/11/29 23:42:10;;;;;;;20.73;10.37;;;;;;;6.84;97.81;99820.84;31037618;28;19926;-86
2023/11/29 23:57:12;;;;;;;19.53;10.90;;;;;;;6.53;97.03;99800.31;31027408;28;20050;-84
